Time;durP1;ratioP1;P1;durP2;ratioP2;P2;SDS_P1;SDS_P2;PMS_P1;PMS_P2;Temp;Humidity;BMP_temperature;BMP_pressure;BME280_temperature;BME280_humidity;BME280_pressure;Samples;Min_cycle;Max_cycle;Signal;HPM_P1;HPM_P2
2022/12/16 00:01:06;;;;;;;85.45;33.75;;;-0.90;99.90;;;;;;5112991;28;20417;-73
2022/12/16 00:03:32;;;;;;;80.10;33.05;;;-0.80;99.90;;;;;;5114043;28;20040;-73
2022/12/16 00:05:58;;;;;;;84.57;35.00;;;-0.80;99.90;;;;;;5095166;28;20510;-74
2022/12/16 00:08:24;;;;;;;84.18;35.83;;;-0.80;99.90;;;;;;5112653;28;20188;-73
2022/12/16 00:10:52;;;;;;;79.95;33.20;;;-0.80;99.90;;;;;;5114053;28;20040;-74
2022/12/16 00:13:18;;;;;;;79.70;33.90;;;-0.70;99.90;;;;;;5114432;28;20039;-74
2022/12/16 00:15:45;;;;;;;81.53;35.00;;;-0.60;99.90;;;;;;5113258;28;20451;-74
2022/12/16 00:18:12;;;;;;;83.10;33.90;;;-0.70;99.90;;;;;;5113685;28;20047;-74
2022/12/16 00:20:46;;;;;;;81.07;34.40;;;-0.60;99.90;;;;;;5113878;28;20055;-75
2022/12/16 00:23:12;;;;;;;84.10;35.03;;;-0.60;99.90;;;;;;5112827;28;20058;-74
2022/12/16 00:25:39;;;;;;;89.18;35.30;;;-0.50;99.90;;;;;;5112659;28;20093;-74
2022/12/16 00:28:05;;;;;;;87.05;36.35;;;-0.50;99.90;;;;;;5095736;28;20147;-74
2022/12/16 00:30:31;;;;;;;93.55;36.95;;;-0.50;99.90;;;;;;5113920;28;20101;-77
2022/12/16 00:32:56;;;;;;;88.38;37.05;;;-0.50;99.90;;;;;;5095824;28;20054;-74
2022/12/16 00:35:22;;;;;;;84.95;35.45;;;-0.50;99.90;;;;;;5112810;28;20051;-74
2022/12/16 00:37:48;;;;;;;86.25;34.55;;;-0.40;99.90;;;;;;5113563;28;20047;-79
2022/12/16 00:40:14;;;;;;;87.65;36.72;;;-0.50;99.90;;;;;;5113735;28;20126;-73
2022/12/16 00:42:39;;;;;;;80.88;33.97;;;-0.40;99.90;;;;;;5112144;28;20066;-74
2022/12/16 00:45:05;;;;;;;83.43;34.28;;;-0.40;99.90;;;;;;5112694;28;20051;-74
2022/12/16 00:47:31;;;;;;;81.82;35.28;;;-0.40;99.90;;;;;;5112377;28;20066;-73
2022/12/16 00:49:57;;;;;;;86.43;35.22;;;-0.30;99.90;;;;;;5112145;28;20043;-74
2022/12/16 00:52:22;;;;;;;92.38;35.33;;;-0.30;99.90;;;;;;5095536;28;20126;-74
2022/12/16 00:54:48;;;;;;;84.60;34.80;;;-0.30;99.90;;;;;;5113251;28;20415;-74
2022/12/16 00:57:14;;;;;;;84.82;36.90;;;-0.30;99.90;;;;;;5113377;28;20051;-75
2022/12/16 00:59:40;;;;;;;86.35;34.85;;;-0.30;99.90;;;;;;5111715;28;20083;-74
2022/12/16 01:02:05;;;;;;;84.43;34.65;;;-0.30;99.90;;;;;;5095213;28;20457;-73
2022/12/16 01:04:31;;;;;;;83.70;33.85;;;-0.30;99.90;;;;;;5095270;28;20369;-73
2022/12/16 01:06:57;;;;;;;88.47;35.97;;;-0.20;99.90;;;;;;5112364;28;20122;-73
2022/12/16 01:09:24;;;;;;;82.57;34.55;;;-0.30;99.90;;;;;;5112275;28;20426;-74
2022/12/16 01:11:49;;;;;;;87.47;36.35;;;-0.30;99.90;;;;;;5095050;28;20043;-74
2022/12/16 01:14:15;;;;;;;83.97;34.00;;;-0.30;99.90;;;;;;5113139;28;20039;-74
2022/12/16 01:16:40;;;;;;;80.82;34.33;;;-0.20;99.90;;;;;;5111339;28;20143;-73
2022/12/16 01:19:06;;;;;;;85.15;35.20;;;-0.30;99.90;;;;;;5113153;28;20463;-74
2022/12/16 01:21:32;;;;;;;83.82;34.03;;;-0.30;99.90;;;;;;5113087;28;20047;-75
2022/12/16 01:23:58;;;;;;;84.70;34.67;;;-0.30;99.90;;;;;;5113121;28;20047;-75
2022/12/16 01:26:23;;;;;;;88.28;34.97;;;-0.40;99.90;;;;;;5095506;28;20365;-74
2022/12/16 01:28:49;;;;;;;80.10;35.38;;;-0.40;99.90;;;;;;5111412;28;20511;-74
2022/12/16 01:31:17;;;;;;;81.32;35.45;;;-0.50;99.90;;;;;;5111504;28;20147;-75
2022/12/16 01:33:42;;;;;;;;;;;-0.50;99.90;;;;;;5112526;28;20043;-74
2022/12/16 01:36:09;;;;;;;83.90;32.10;;;-0.50;99.90;;;;;;5112877;28;20011;-74
2022/12/16 01:38:35;;;;;;;82.80;32.78;;;-0.40;99.90;;;;;;5111725;28;20444;-74
2022/12/16 01:41:02;;;;;;;83.13;34.33;;;-0.30;99.90;;;;;;5111545;28;20077;-73
2022/12/16 01:43:30;;;;;;;77.70;32.85;;;-0.40;99.90;;;;;;5113107;28;20188;-73
2022/12/16 01:46:08;;;;;;;83.78;33.63;;;-0.30;99.90;;;;;;5113138;28;20050;-72
2022/12/16 01:49:07;;;;;;;85.35;34.88;;;-0.40;99.90;;;;;;5112737;28;20051;-74
2022/12/16 01:51:41;;;;;;;75.57;31.88;;;-0.40;99.90;;;;;;5111326;28;20080;-73
2022/12/16 01:54:27;;;;;;;81.85;34.15;;;-0.30;99.90;;;;;;5113131;28;20043;-74
2022/12/16 01:57:01;;;;;;;80.35;33.17;;;-0.30;99.90;;;;;;5112314;28;20143;-74
2022/12/16 01:59:30;;;;;;;92.53;34.25;;;-0.30;99.90;;;;;;5111838;28;20436;-75
2022/12/16 02:01:56;;;;;;;83.72;34.08;;;-0.30;99.90;;;;;;5111046;28;20130;-74
2022/12/16 02:04:22;;;;;;;84.78;34.40;;;-0.30;99.90;;;;;;5112664;28;20047;-74
2022/12/16 02:06:48;;;;;;;81.68;32.30;;;-0.30;99.90;;;;;;5111357;28;20161;-73
2022/12/16 02:09:15;;;;;;;81.60;33.60;;;-0.20;99.90;;;;;;5112422;28;20078;-74
2022/12/16 02:11:53;;;;;;;84.88;33.40;;;-0.20;99.90;;;;;;5094685;28;20134;-73
2022/12/16 02:14:38;;;;;;;80.13;32.75;;;-0.20;99.90;;;;;;5112628;28;20138;-72
2022/12/16 02:17:41;;;;;;;81.63;34.10;;;-0.20;99.90;;;;;;5112884;28;20079;-72
2022/12/16 02:20:44;;;;;;;80.68;32.53;;;-0.20;99.90;;;;;;5094411;28;20462;-74
2022/12/16 02:23:40;;;;;;;82.95;32.42;;;-0.20;99.90;;;;;;5112330;28;20071;-75
2022/12/16 02:26:20;;;;;;;79.90;32.15;;;-0.20;99.90;;;;;;5112340;28;20081;-75
2022/12/16 02:29:20;;;;;;;82.32;33.28;;;-0.20;99.90;;;;;;5113413;28;20453;-79
2022/12/16 02:31:57;;;;;;;73.90;33.10;;;-0.20;99.90;;;;;;5115951;28;20039;-78
2022/12/16 02:34:50;;;;;;;85.05;33.08;;;-0.20;99.90;;;;;;5116511;28;20051;-75
2022/12/16 02:37:41;;;;;;;88.50;33.28;;;-0.20;99.90;;;;;;5084002;28;20043;-75
2022/12/16 02:40:32;;;;;;;81.70;32.17;;;-0.20;99.90;;;;;;5115475;28;20051;-74
2022/12/16 02:43:21;;;;;;;84.15;33.70;;;-0.20;99.90;;;;;;5115325;28;20043;-75
2022/12/16 02:45:49;;;;;;;82.38;32.30;;;-0.30;99.90;;;;;;5116573;28;20047;-77
2022/12/16 02:48:14;;;;;;;;;;;-0.30;99.90;;;;;;5116719;28;20064;-75
2022/12/16 02:50:48;;;;;;;79.70;32.33;;;-0.20;99.90;;;;;;5097838;28;20443;-74
2022/12/16 02:53:14;;;;;;;88.72;34.38;;;-0.30;99.90;;;;;;5114992;28;20462;-73
2022/12/16 02:55:42;;;;;;;87.93;35.05;;;-0.20;99.90;;;;;;5115479;28;20484;-74
2022/12/16 02:58:23;;;;;;;85.13;34.20;;;-0.20;99.90;;;;;;5116004;28;20434;-74
2022/12/16 03:01:23;;;;;;;86.55;33.42;;;-0.20;99.90;;;;;;5114791;28;20086;-78
2022/12/16 03:04:00;;;;;;;84.32;32.80;;;-0.20;99.90;;;;;;5097645;28;20139;-78
2022/12/16 03:06:29;;;;;;;91.18;35.22;;;-0.30;99.90;;;;;;5116239;28;20391;-73
2022/12/16 03:08:58;;;;;;;84.22;31.15;;;-0.30;99.90;;;;;;5115437;28;20087;-73
2022/12/16 03:11:27;;;;;;;84.85;32.47;;;-0.20;99.90;;;;;;5115810;28;20380;-74
2022/12/16 03:13:54;;;;;;;79.72;32.20;;;-0.30;99.90;;;;;;5114443;28;20090;-76
2022/12/16 03:16:26;;;;;;;82.15;34.30;;;-0.20;99.90;;;;;;5115196;28;20473;-71
2022/12/16 03:18:55;;;;;;;75.75;32.83;;;-0.30;99.90;;;;;;5115006;28;20067;-75
2022/12/16 03:21:28;;;;;;;83.38;32.78;;;-0.30;99.90;;;;;;5114043;28;20123;-72
2022/12/16 03:23:59;;;;;;;82.88;32.97;;;-0.30;99.90;;;;;;5115250;28;20145;-73
2022/12/16 03:26:33;;;;;;;89.18;34.30;;;-0.30;99.90;;;;;;5114319;28;20160;-72
2022/12/16 03:29:10;;;;;;;84.70;32.53;;;-0.30;99.90;;;;;;5129709;27;20087;-71
2022/12/16 03:31:35;;;;;;;83.85;32.63;;;-0.30;99.90;;;;;;5135664;27;20115;-71
2022/12/16 03:34:16;;;;;;;93.15;35.85;;;-0.40;99.90;;;;;;5135757;27;20047;-72
2022/12/16 03:36:47;;;;;;;80.18;32.70;;;-0.40;99.90;;;;;;5117353;27;20126;-72
2022/12/16 03:39:14;;;;;;;90.35;33.60;;;-0.30;99.90;;;;;;5135824;27;20436;-73
2022/12/16 03:41:43;;;;;;;81.78;32.42;;;-0.40;99.90;;;;;;5135211;27;20130;-72
2022/12/16 03:44:09;;;;;;;81.65;32.60;;;-0.40;99.90;;;;;;5135334;27;20043;-73
2022/12/16 03:46:35;;;;;;;77.10;32.73;;;-0.30;99.90;;;;;;5135458;27;20130;-73
2022/12/16 03:49:01;;;;;;;82.30;32.88;;;-0.30;99.90;;;;;;5116948;27;20389;-73
2022/12/16 03:51:27;;;;;;;90.40;32.88;;;-0.30;99.90;;;;;;5100032;27;20054;-74
2022/12/16 03:53:52;;;;;;;85.70;33.75;;;-0.30;99.90;;;;;;5135117;27;20082;-72
2022/12/16 03:56:18;;;;;;;88.25;34.28;;;-0.30;99.90;;;;;;5116709;27;20096;-72
2022/12/16 03:58:45;;;;;;;88.35;33.10;;;-0.30;99.90;;;;;;5135109;27;20047;-72
2022/12/16 04:01:11;;;;;;;92.90;35.25;;;-0.30;99.90;;;;;;5134891;27;20055;-72
2022/12/16 04:03:37;;;;;;;75.75;31.60;;;-0.30;99.90;;;;;;5099737;27;20073;-72
2022/12/16 04:06:04;;;;;;;81.82;33.00;;;-0.20;99.90;;;;;;5134977;27;20524;-73
2022/12/16 04:08:29;;;;;;;86.60;32.70;;;-0.30;99.90;;;;;;5135593;27;20370;-71
2022/12/16 04:24:45;;;;;;;86.85;34.63;;;-0.20;99.90;;;;;;5116039;27;20122;-72
2022/12/16 04:27:23;;;;;;;87.18;34.35;;;-0.30;99.90;;;;;;5134801;27;20085;-72
